createdAt,value
2023-04-16T00:01:39.047Z,101908.81
2023-04-16T00:04:06.026Z,101906.72
2023-04-16T00:06:32.793Z,101907.03
2023-04-16T00:08:59.400Z,101908.31
2023-04-16T00:11:25.822Z,101906.75
2023-04-16T00:13:52.425Z,101912.47
2023-04-16T00:16:18.847Z,101912.63
2023-04-16T00:18:45.577Z,101912.09
2023-04-16T00:21:12.391Z,101915.53
2023-04-16T00:23:38.901Z,101918.75
2023-04-16T00:26:05.373Z,101924.28
2023-04-16T00:28:31.850Z,101920.09
2023-04-16T00:30:58.545Z,101923.44
2023-04-16T00:33:25.240Z,101925.78
2023-04-16T00:35:51.668Z,101922.94
2023-04-16T00:38:18.264Z,101928.31
2023-04-16T00:40:44.923Z,101919.59
2023-04-16T00:43:11.313Z,101922.09
2023-04-16T00:45:38.672Z,101920.19
2023-04-16T00:48:05.885Z,101924.41
2023-04-16T00:50:33.661Z,101927.69
2023-04-16T00:53:01.078Z,101924.97
2023-04-16T00:55:27.659Z,101931.06
2023-04-16T00:57:54.116Z,101932.84
2023-04-16T01:00:21.484Z,101930.94
2023-04-16T01:02:48.146Z,101931.47
2023-04-16T01:05:14.729Z,101926.97
2023-04-16T01:07:41.154Z,101931.50
2023-04-16T01:10:08.199Z,101934.13
2023-04-16T01:12:34.704Z,101932.56
2023-04-16T01:15:01.444Z,101935.06
2023-04-16T01:17:27.911Z,101944.47
2023-04-16T01:19:54.759Z,101951.69
2023-04-16T01:22:21.207Z,101951.09
2023-04-16T01:24:47.760Z,101950.41
2023-04-16T01:27:15.043Z,101951.00
2023-04-16T01:29:41.777Z,101951.34
2023-04-16T01:32:08.671Z,101961.63
2023-04-16T01:34:40.725Z,101954.81
2023-04-16T01:37:09.758Z,101952.91
2023-04-16T01:39:36.619Z,101956.19
2023-04-16T01:42:03.120Z,101956.72
2023-04-16T01:44:31.022Z,101953.56
2023-04-16T01:46:57.583Z,101956.19
2023-04-16T01:49:25.368Z,101956.94
2023-04-16T01:51:51.797Z,101957.06
2023-04-16T01:54:18.541Z,101964.84
2023-04-16T01:56:44.993Z,101961.78
2023-04-16T01:59:12.338Z,101966.00
2023-04-16T02:01:42.362Z,101964.09
2023-04-16T02:04:10.223Z,101964.72
2023-04-16T02:06:37.603Z,101966.28
2023-04-16T02:09:04.197Z,101973.03
2023-04-16T02:11:31.071Z,101970.16
2023-04-16T02:13:57.604Z,101967.75
2023-04-16T02:16:26.378Z,101975.22
2023-04-16T02:18:58.173Z,101972.06
2023-04-16T02:21:27.414Z,101976.03
2023-04-16T02:23:53.815Z,101973.66
2023-04-16T02:26:26.618Z,101975.53
2023-04-16T02:28:55.267Z,101973.53
2023-04-16T02:31:28.558Z,101973.22
2023-04-16T02:33:56.144Z,101979.41
2023-04-16T02:36:22.741Z,101977.38
2023-04-16T02:38:49.182Z,101982.66
2023-04-16T02:41:15.982Z,101979.09
2023-04-16T02:43:42.532Z,101987.03
2023-04-16T02:46:09.237Z,101991.88
2023-04-16T02:48:36.096Z,101991.88
2023-04-16T02:51:02.821Z,101986.50
2023-04-16T02:53:29.209Z,101990.19
2023-04-16T02:55:55.809Z,101992.13
2023-04-16T02:58:24.524Z,101990.19
2023-04-16T03:00:52.236Z,101989.25
2023-04-16T03:03:18.871Z,101994.69
2023-04-16T03:05:45.691Z,101994.88
2023-04-16T03:08:12.099Z,101992.34
2023-04-16T03:10:38.928Z,101987.50
2023-04-16T03:13:05.542Z,101994.88
2023-04-16T03:15:32.154Z,101992.16
2023-04-16T03:17:59.347Z,101994.88
2023-04-16T03:20:26.204Z,101996.34
2023-04-16T03:22:53.208Z,101996.97
2023-04-16T03:25:19.911Z,101994.47
2023-04-16T03:27:46.320Z,101998.56
2023-04-16T03:30:14.700Z,102003.81
2023-04-16T03:32:41.390Z,102008.75
2023-04-16T03:35:08.968Z,102006.78
2023-04-16T03:37:36.939Z,102006.88
2023-04-16T03:40:05.781Z,102006.22
2023-04-16T03:42:32.679Z,102000.63
2023-04-16T03:44:59.466Z,101999.25
2023-04-16T03:47:26.640Z,102001.25
2023-04-16T03:49:56.784Z,102011.16
2023-04-16T03:52:23.613Z,102010.44
2023-04-16T03:54:50.785Z,102009.81
2023-04-16T03:57:23.850Z,102009.50
2023-04-16T03:59:51.103Z,102009.38
2023-04-16T04:02:18.449Z,102004.13
2023-04-16T04:04:45.251Z,102016.94
2023-04-16T04:07:11.899Z,102008.00
2023-04-16T04:09:38.755Z,102012.31
2023-04-16T04:12:05.613Z,102018.00
2023-04-16T04:14:33.076Z,102021.38
2023-04-16T04:16:59.695Z,102020.69
2023-04-16T04:19:26.130Z,102019.03
2023-04-16T04:21:52.855Z,102019.03
2023-04-16T04:24:19.344Z,102020.91
2023-04-16T04:26:45.932Z,102025.28
2023-04-16T04:29:13.920Z,102020.53
2023-04-16T04:31:41.079Z,102022.25
2023-04-16T04:34:07.699Z,102030.44
2023-04-16T04:36:34.390Z,102031.81
2023-04-16T04:39:01.283Z,102035.06
2023-04-16T04:41:28.108Z,102029.28
2023-04-16T04:43:54.556Z,102030.25
2023-04-16T04:46:21.318Z,102039.94
2023-04-16T04:48:47.862Z,102031.94
2023-04-16T04:51:16.729Z,102039.72
2023-04-16T04:53:45.871Z,102032.78
2023-04-16T04:56:13.189Z,102035.69
2023-04-16T04:58:41.385Z,102047.28
2023-04-16T05:01:08.089Z,102045.28
2023-04-16T05:03:34.687Z,102045.28
2023-04-16T05:06:01.359Z,102049.59
2023-04-16T05:08:27.931Z,102047.50
2023-04-16T05:10:54.642Z,102045.78
2023-04-16T05:13:21.577Z,102046.13
2023-04-16T05:15:48.052Z,102056.13
2023-04-16T05:18:14.454Z,102050.44
2023-04-16T05:20:41.047Z,102054.75
2023-04-16T05:23:07.482Z,102052.03
2023-04-16T05:25:34.193Z,102063.72
2023-04-16T05:28:00.867Z,102063.72
2023-04-16T05:30:27.558Z,102068.66
2023-04-16T05:32:54.091Z,102065.56
2023-04-16T05:35:20.721Z,102060.31
2023-04-16T05:37:47.165Z,102067.50
2023-04-16T05:40:14.684Z,102068.66
2023-04-16T05:42:41.316Z,102082.63
2023-04-16T05:45:08.610Z,102085.81
2023-04-16T05:47:35.106Z,102090.72
2023-04-16T05:50:01.752Z,102086.81
2023-04-16T05:52:28.193Z,102087.78
2023-04-16T05:54:54.877Z,102087.16
2023-04-16T05:57:21.266Z,102094.63
2023-04-16T05:59:47.864Z,102100.16
2023-04-16T06:02:14.448Z,102099.91
2023-04-16T06:04:41.156Z,102095.91
2023-04-16T06:07:07.694Z,102100.94
2023-04-16T06:09:34.242Z,102096.22
2023-04-16T06:12:01.245Z,102094.50
2023-04-16T06:14:27.778Z,102097.44
2023-04-16T06:16:54.253Z,102097.22
2023-04-16T06:19:20.969Z,102094.59
2023-04-16T06:21:47.372Z,102102.28
2023-04-16T06:24:13.975Z,102105.41
2023-04-16T06:26:40.449Z,102101.66
2023-04-16T06:29:06.987Z,102104.28
2023-04-16T06:31:33.737Z,102115.03
2023-04-16T06:34:00.443Z,102115.03
2023-04-16T06:36:27.927Z,102111.31
2023-04-16T06:38:54.668Z,102124.59
2023-04-16T06:41:22.722Z,102130.38
2023-04-16T06:43:49.595Z,102129.88
2023-04-16T06:46:16.021Z,102137.88
2023-04-16T06:48:42.693Z,102131.84
2023-04-16T06:51:09.109Z,102134.53
2023-04-16T06:53:37.598Z,102136.47
2023-04-16T06:56:04.522Z,102139.31
2023-04-16T06:58:31.121Z,102139.50
2023-04-16T07:00:57.829Z,102140.47
2023-04-16T07:03:24.571Z,102140.19
2023-04-16T07:05:51.329Z,102141.47
2023-04-16T07:08:17.782Z,102147.34
2023-04-16T07:10:44.479Z,102143.53
2023-04-16T07:13:10.924Z,102144.19
2023-04-16T07:15:37.387Z,102146.19
2023-04-16T07:18:04.105Z,102149.88
2023-04-16T07:20:30.771Z,102147.75
2023-04-16T07:22:59.230Z,102149.63
2023-04-16T07:25:26.865Z,102149.00
2023-04-16T07:27:53.464Z,102156.78
2023-04-16T07:30:19.900Z,102157.44
2023-04-16T07:32:46.448Z,102160.88
2023-04-16T07:35:13.004Z,102157.44
2023-04-16T07:37:39.402Z,102154.44
2023-04-16T07:40:06.963Z,102165.25
2023-04-16T07:42:33.389Z,102163.13
2023-04-16T07:44:59.855Z,102163.88
2023-04-16T07:47:27.115Z,102167.97
2023-04-16T07:49:53.912Z,102170.16
2023-04-16T07:52:20.634Z,102169.31
2023-04-16T07:54:47.235Z,102169.94
2023-04-16T07:57:13.653Z,102168.03
2023-04-16T07:59:40.217Z,102171.13
2023-04-16T08:02:07.228Z,102173.28
2023-04-16T08:04:33.986Z,102174.78
2023-04-16T08:07:00.717Z,102173.13
2023-04-16T08:09:28.556Z,102175.56
2023-04-16T08:11:54.949Z,102174.50
2023-04-16T08:14:21.585Z,102185.00
2023-04-16T08:16:47.984Z,102186.19
2023-04-16T08:19:14.417Z,102182.13
2023-04-16T08:21:41.106Z,102194.50
2023-04-16T08:24:08.007Z,102193.19
2023-04-16T08:26:34.400Z,102199.44
2023-04-16T08:29:01.013Z,102196.31
2023-04-16T08:31:27.647Z,102194.13
2023-04-16T08:33:54.326Z,102208.31
2023-04-16T08:36:20.834Z,102202.06
2023-04-16T08:38:47.353Z,102204.56
2023-04-16T08:41:14.008Z,102201.19
2023-04-16T08:43:44.810Z,102202.75
2023-04-16T08:46:12.364Z,102204.44
2023-04-16T08:48:43.050Z,102210.28
2023-04-16T08:51:11.922Z,102214.00
2023-04-16T08:53:58.363Z,102222.16
2023-04-16T08:56:25.447Z,102213.41
2023-04-16T08:58:54.730Z,102220.00
2023-04-16T09:01:21.417Z,102221.28
2023-04-16T09:03:48.860Z,102222.34
2023-04-16T09:06:16.605Z,102222.94
2023-04-16T09:08:46.532Z,102226.16
2023-04-16T09:11:19.663Z,102221.13
2023-04-16T09:13:47.514Z,102226.56
2023-04-16T09:16:14.830Z,102230.94
2023-04-16T09:18:41.426Z,102227.97
2023-04-16T09:21:10.031Z,102225.38
2023-04-16T09:23:38.389Z,102233.31
2023-04-16T09:26:05.664Z,102224.91
2023-04-16T09:28:48.782Z,102233.56
2023-04-16T09:31:18.177Z,102232.25
2023-04-16T09:34:01.495Z,102231.28
2023-04-16T09:36:28.330Z,102230.09
2023-04-16T09:39:07.631Z,102228.88
2023-04-16T09:41:39.452Z,102237.44
2023-04-16T09:44:06.148Z,102235.50
2023-04-16T09:46:40.360Z,102238.38
2023-04-16T09:49:16.828Z,102244.41
2023-04-16T09:51:47.941Z,102248.59
2023-04-16T09:54:14.548Z,102241.25
2023-04-16T09:56:46.414Z,102248.94
2023-04-16T09:59:23.335Z,102253.53
2023-04-16T10:01:50.435Z,102258.56
2023-04-16T10:04:17.325Z,102259.22
2023-04-16T10:06:44.098Z,102253.63
2023-04-16T10:09:11.245Z,102261.78
2023-04-16T10:11:37.926Z,102251.91
2023-04-16T10:14:04.663Z,102257.22
2023-04-16T10:16:31.315Z,102261.72
2023-04-16T10:18:58.833Z,102258.63
2023-04-16T10:21:33.485Z,102259.81
2023-04-16T10:24:00.649Z,102259.66
2023-04-16T10:26:28.920Z,102265.34
2023-04-16T10:28:56.299Z,102259.94
2023-04-16T10:31:23.119Z,102271.53
2023-04-16T10:33:50.343Z,102273.38
2023-04-16T10:36:23.494Z,102280.03
2023-04-16T10:38:52.422Z,102273.19
2023-04-16T10:41:21.930Z,102277.88
2023-04-16T10:43:51.549Z,102279.94
2023-04-16T10:46:29.019Z,102279.81
2023-04-16T10:48:59.973Z,102284.47
2023-04-16T10:51:34.475Z,102289.03
2023-04-16T10:54:11.698Z,102281.91
2023-04-16T10:56:38.297Z,102282.75
2023-04-16T10:59:06.379Z,102284.25
2023-04-16T11:01:34.931Z,102285.88
2023-04-16T11:04:25.180Z,102280.09
2023-04-16T11:07:16.594Z,102289.13
2023-04-16T11:09:56.546Z,102286.50
2023-04-16T11:12:27.112Z,102295.88
2023-04-16T11:14:58.050Z,102294.44
2023-04-16T11:17:28.992Z,102294.31
2023-04-16T11:19:55.793Z,102295.84
2023-04-16T11:22:22.380Z,102298.63
2023-04-16T11:24:55.479Z,102292.47
2023-04-16T11:27:23.273Z,102291.91
2023-04-16T11:30:09.509Z,102301.16
2023-04-16T11:32:37.884Z,102299.22
2023-04-16T11:35:16.994Z,102300.44
2023-04-16T11:37:44.675Z,102294.91
2023-04-16T11:40:11.964Z,102304.16
2023-04-16T11:42:40.822Z,102301.63
2023-04-16T11:45:09.662Z,102305.69
2023-04-16T11:47:52.959Z,102310.72
2023-04-16T11:50:25.017Z,102305.91
2023-04-16T11:52:53.017Z,102309.88
2023-04-16T11:55:20.604Z,102313.25
2023-04-16T11:57:47.367Z,102315.31
2023-04-16T12:00:15.081Z,102321.47
2023-04-16T12:02:41.676Z,102322.56
2023-04-16T12:05:31.231Z,102315.94
2023-04-16T12:07:58.677Z,102319.19
2023-04-16T12:10:25.935Z,102323.03
2023-04-16T12:12:52.695Z,102323.53
2023-04-16T12:15:19.165Z,102320.13
2023-04-16T12:17:45.991Z,102326.88
2023-04-16T12:20:15.425Z,102328.94
2023-04-16T12:22:47.620Z,102330.47
2023-04-16T12:25:16.270Z,102331.34
2023-04-16T12:27:53.988Z,102330.13
2023-04-16T12:30:26.362Z,102338.06
2023-04-16T12:33:18.260Z,102333.00
2023-04-16T12:35:45.317Z,102327.38
2023-04-16T12:38:12.407Z,102335.03
2023-04-16T12:40:39.066Z,102340.34
2023-04-16T12:43:05.500Z,102334.69
2023-04-16T12:45:32.150Z,102335.19
2023-04-16T12:47:59.177Z,102329.63
2023-04-16T12:50:25.950Z,102327.97
2023-04-16T12:52:52.368Z,102330.97
2023-04-16T12:55:19.311Z,102330.50
2023-04-16T12:57:45.716Z,102334.09
2023-04-16T13:00:12.832Z,102333.84
2023-04-16T13:02:39.939Z,102330.59
2023-04-16T13:05:07.919Z,102326.53
2023-04-16T13:07:34.591Z,102331.44
2023-04-16T13:10:01.357Z,102328.78
2023-04-16T13:12:28.402Z,102336.34
2023-04-16T13:14:57.788Z,102337.19
2023-04-16T13:17:24.313Z,102329.38
2023-04-16T13:19:51.009Z,102337.22
2023-04-16T13:22:17.487Z,102333.59
2023-04-16T13:24:44.082Z,102332.28
2023-04-16T13:27:11.282Z,102335.44
2023-04-16T13:29:38.059Z,102341.53
2023-04-16T13:32:04.743Z,102339.63
2023-04-16T13:34:31.733Z,102336.47
2023-04-16T13:36:58.286Z,102332.97
2023-04-16T13:39:25.324Z,102329.22
2023-04-16T13:41:51.732Z,102336.81
2023-04-16T13:44:18.217Z,102339.91
2023-04-16T13:46:47.642Z,102335.91
2023-04-16T13:49:14.854Z,102338.09
2023-04-16T13:51:44.586Z,102340.94
2023-04-16T13:54:11.166Z,102336.22
2023-04-16T13:56:37.684Z,102339.69
2023-04-16T13:59:04.368Z,102337.50
2023-04-16T14:01:30.891Z,102331.56
2023-04-16T14:03:57.537Z,102331.03
2023-04-16T14:06:24.006Z,102331.69
2023-04-16T14:08:50.825Z,102336.50
2023-04-16T14:11:17.245Z,102328.66
2023-04-16T14:13:43.832Z,102329.75
2023-04-16T14:16:10.692Z,102341.00
2023-04-16T14:18:41.001Z,102337.72
2023-04-16T14:21:08.097Z,102336.44
2023-04-16T14:23:34.650Z,102343.56
2023-04-16T14:26:01.085Z,102345.59
2023-04-16T14:28:27.701Z,102339.69
2023-04-16T14:30:54.098Z,102336.06
2023-04-16T14:33:20.649Z,102332.72
2023-04-16T14:35:47.075Z,102339.72
2023-04-16T14:38:13.734Z,102344.53
2023-04-16T14:40:40.284Z,102340.31
2023-04-16T14:43:06.849Z,102339.59
2023-04-16T14:45:33.351Z,102337.94
2023-04-16T14:48:00.061Z,102338.19
2023-04-16T14:50:26.513Z,102341.78
2023-04-16T14:52:54.641Z,102334.56
2023-04-16T14:55:21.370Z,102341.44
2023-04-16T14:57:47.822Z,102335.78
2023-04-16T15:00:17.125Z,102343.59
2023-04-16T15:02:43.825Z,102345.72
2023-04-16T15:05:10.636Z,102343.06
2023-04-16T15:07:37.284Z,102344.34
2023-04-16T15:10:04.515Z,102349.44
2023-04-16T15:12:31.141Z,102345.97
2023-04-16T15:14:57.845Z,102344.00
2023-04-16T15:17:24.360Z,102355.19
2023-04-16T15:19:52.147Z,102355.19
2023-04-16T15:22:18.618Z,102359.75
2023-04-16T15:24:45.488Z,102356.53
2023-04-16T15:27:13.775Z,102367.25
2023-04-16T15:29:40.425Z,102365.63
2023-04-16T15:32:09.776Z,102366.50
2023-04-16T15:34:36.308Z,102372.28
2023-04-16T15:37:02.802Z,102373.75
2023-04-16T15:39:30.821Z,102371.34
2023-04-16T15:42:01.577Z,102375.66
2023-04-16T15:44:31.385Z,102372.16
2023-04-16T15:46:58.134Z,102374.56
2023-04-16T15:49:24.794Z,102378.78
2023-04-16T15:51:52.102Z,102383.63
2023-04-16T15:54:18.934Z,102385.56
2023-04-16T15:56:46.567Z,102381.94
2023-04-16T15:59:13.472Z,102379.41
2023-04-16T16:01:40.239Z,102374.97
2023-04-16T16:04:07.974Z,102379.88
2023-04-16T16:06:34.915Z,102384.38
2023-04-16T16:09:01.741Z,102383.63
2023-04-16T16:11:28.361Z,102387.38
2023-04-16T16:13:54.925Z,102381.47
2023-04-16T16:16:21.849Z,102386.75
2023-04-16T16:18:48.821Z,102388.56
2023-04-16T16:21:15.282Z,102384.38
2023-04-16T16:23:41.970Z,102382.41
2023-04-16T16:26:09.117Z,102381.44
2023-04-16T16:28:37.801Z,102382.19
2023-04-16T16:31:05.936Z,102390.47
2023-04-16T16:33:32.881Z,102392.03
2023-04-16T16:35:59.294Z,102388.69
2023-04-16T16:38:25.868Z,102393.53
2023-04-16T16:40:52.365Z,102389.03
2023-04-16T16:43:18.809Z,102390.13
2023-04-16T16:45:45.204Z,102390.88
2023-04-16T16:48:11.922Z,102386.50
2023-04-16T16:50:38.369Z,102391.81
2023-04-16T16:53:05.289Z,102389.78
2023-04-16T16:55:31.759Z,102398.44
2023-04-16T16:57:58.696Z,102394.09
2023-04-16T17:00:25.448Z,102389.78
2023-04-16T17:02:52.281Z,102389.41
2023-04-16T17:05:18.926Z,102385.19
2023-04-16T17:07:45.844Z,102391.13
2023-04-16T17:10:15.756Z,102393.25
2023-04-16T17:12:42.242Z,102394.00
2023-04-16T17:15:09.300Z,102400.50
2023-04-16T17:17:35.981Z,102396.41
2023-04-16T17:20:08.030Z,102400.25
2023-04-16T17:22:34.656Z,102407.44
2023-04-16T17:25:01.434Z,102403.25
2023-04-16T17:27:29.379Z,102409.25
2023-04-16T17:29:59.986Z,102410.06
2023-04-16T17:32:26.945Z,102412.47
2023-04-16T17:34:56.462Z,102415.22
2023-04-16T17:37:23.439Z,102411.16
2023-04-16T17:39:50.101Z,102413.97
2023-04-16T17:42:17.012Z,102414.94
2023-04-16T17:44:43.504Z,102416.63
2023-04-16T17:47:10.066Z,102422.03
2023-04-16T17:49:36.535Z,102418.91
2023-04-16T17:52:03.393Z,102425.72
2023-04-16T17:54:29.804Z,102426.34
2023-04-16T17:56:57.512Z,102419.84
2023-04-16T17:59:24.184Z,102436.72
2023-04-16T18:01:50.894Z,102437.38
2023-04-16T18:04:18.008Z,102439.53
2023-04-16T18:06:44.939Z,102442.66
2023-04-16T18:09:12.156Z,102446.25
2023-04-16T18:11:38.566Z,102449.78
2023-04-16T18:14:05.166Z,102447.03
2023-04-16T18:16:32.147Z,102459.66
2023-04-16T18:18:59.119Z,102452.16
2023-04-16T18:21:25.896Z,102456.75
2023-04-16T18:23:52.363Z,102458.84
2023-04-16T18:26:21.099Z,102468.44
2023-04-16T18:28:49.298Z,102471.91
2023-04-16T18:31:15.964Z,102479.81
2023-04-16T18:33:54.081Z,102479.22
2023-04-16T18:36:23.603Z,102481.00
2023-04-16T18:39:00.191Z,102485.59
2023-04-16T18:41:28.492Z,102483.25
2023-04-16T18:43:55.090Z,102488.34
2023-04-16T18:46:21.554Z,102487.59
2023-04-16T18:48:48.215Z,102492.38
2023-04-16T18:51:16.374Z,102489.72
2023-04-16T18:53:44.524Z,102498.81
2023-04-16T18:56:11.522Z,102501.19
2023-04-16T18:58:38.167Z,102510.59
2023-04-16T19:01:07.610Z,102509.09
2023-04-16T19:03:34.435Z,102508.03
2023-04-16T19:06:01.065Z,102503.91
2023-04-16T19:08:27.710Z,102517.94
2023-04-16T19:10:54.135Z,102516.69
2023-04-16T19:13:20.806Z,102515.03
2023-04-16T19:15:47.251Z,102518.84
2023-04-16T19:18:13.885Z,102524.97
2023-04-16T19:20:40.427Z,102525.59
2023-04-16T19:23:09.185Z,102530.75
2023-04-16T19:25:36.457Z,102528.34
2023-04-16T19:28:03.741Z,102526.22
2023-04-16T19:30:30.497Z,102534.88
2023-04-16T19:32:57.154Z,102536.78
2023-04-16T19:35:23.808Z,102536.56
2023-04-16T19:37:50.508Z,102532.88
2023-04-16T19:40:16.954Z,102536.81
2023-04-16T19:42:45.429Z,102529.81
2023-04-16T19:45:12.117Z,102528.78
2023-04-16T19:47:38.757Z,102535.53
2023-04-16T19:50:05.964Z,102539.13
2023-04-16T19:52:37.453Z,102535.94
2023-04-16T19:55:04.985Z,102538.16
2023-04-16T19:57:31.478Z,102542.50
2023-04-16T19:59:57.899Z,102546.19
2023-04-16T20:02:24.704Z,102545.22
2023-04-16T20:04:52.899Z,102537.66
2023-04-16T20:07:19.958Z,102539.94
2023-04-16T20:09:46.598Z,102538.47
2023-04-16T20:12:13.016Z,102543.75
2023-04-16T20:14:40.027Z,102544.88
2023-04-16T20:17:09.799Z,102554.28
2023-04-16T20:19:38.325Z,102546.19
2023-04-16T20:22:04.851Z,102558.31
2023-04-16T20:24:31.404Z,102556.19
2023-04-16T20:26:58.003Z,102557.34
2023-04-16T20:29:24.487Z,102563.16
2023-04-16T20:31:50.915Z,102564.28
2023-04-16T20:34:17.616Z,102565.66
2023-04-16T20:36:44.050Z,102565.22
2023-04-16T20:39:11.294Z,102563.97
2023-04-16T20:41:44.336Z,102566.03
2023-04-16T20:44:18.075Z,102567.31
2023-04-16T20:46:49.365Z,102562.41
2023-04-16T20:49:17.617Z,102571.34
2023-04-16T20:51:44.256Z,102571.34
2023-04-16T20:54:11.065Z,102573.06
2023-04-16T20:56:37.471Z,102566.81
2023-04-16T20:59:04.028Z,102568.59
2023-04-16T21:01:30.682Z,102569.25
2023-04-16T21:03:57.691Z,102562.47
2023-04-16T21:06:24.269Z,102567.66
2023-04-16T21:08:50.776Z,102564.69
2023-04-16T21:11:17.206Z,102572.59
2023-04-16T21:13:43.882Z,102569.53
2023-04-16T21:16:12.250Z,102566.69
2023-04-16T21:18:38.773Z,102567.31
2023-04-16T21:21:05.397Z,102570.59
2023-04-16T21:23:32.035Z,102565.75
2023-04-16T21:25:58.499Z,102562.88
2023-04-16T21:28:25.002Z,102564.16
2023-04-16T21:30:52.433Z,102565.31
2023-04-16T21:33:19.143Z,102569.00
2023-04-16T21:35:51.453Z,102571.09
2023-04-16T21:38:18.085Z,102569.00
2023-04-16T21:40:46.265Z,102564.38
2023-04-16T21:43:12.677Z,102569.22
2023-04-16T21:45:39.758Z,102564.22
2023-04-16T21:48:06.566Z,102575.31
2023-04-16T21:50:33.324Z,102568.78
2023-04-16T21:52:59.762Z,102574.25
2023-04-16T21:55:26.224Z,102567.72
2023-04-16T21:57:52.674Z,102572.34
2023-04-16T22:00:19.224Z,102576.34
2023-04-16T22:02:45.973Z,102566.88
2023-04-16T22:05:12.752Z,102571.09
2023-04-16T22:07:39.346Z,102567.06
2023-04-16T22:10:06.755Z,102567.50
2023-04-16T22:12:33.328Z,102575.94
2023-04-16T22:15:02.931Z,102572.00
2023-04-16T22:17:30.197Z,102572.81
2023-04-16T22:20:00.286Z,102578.63
2023-04-16T22:22:26.741Z,102580.53
2023-04-16T22:24:53.388Z,102575.63
2023-04-16T22:27:19.968Z,102580.91
2023-04-16T22:29:46.396Z,102582.81
2023-04-16T22:32:13.101Z,102581.69
2023-04-16T22:34:39.546Z,102583.25
2023-04-16T22:37:08.116Z,102580.72
2023-04-16T22:39:34.726Z,102582.59
2023-04-16T22:42:02.428Z,102583.06
2023-04-16T22:44:29.078Z,102586.63
2023-04-16T22:46:55.640Z,102584.31
2023-04-16T22:49:22.119Z,102584.09
2023-04-16T22:51:48.731Z,102578.47
2023-04-16T22:54:15.189Z,102581.09
2023-04-16T22:56:41.775Z,102582.34
2023-04-16T22:59:08.295Z,102584.16
2023-04-16T23:01:35.074Z,102582.25
2023-04-16T23:04:01.696Z,102579.81
2023-04-16T23:06:28.455Z,102579.19
2023-04-16T23:08:54.890Z,102573.03
2023-04-16T23:11:21.927Z,102577.16
2023-04-16T23:13:48.358Z,102568.63
2023-04-16T23:16:15.048Z,102569.50
2023-04-16T23:18:41.491Z,102573.47
2023-04-16T23:21:07.885Z,102573.84
2023-04-16T23:23:34.343Z,102576.47
2023-04-16T23:26:02.612Z,102572.97
2023-04-16T23:28:29.367Z,102581.41
2023-04-16T23:30:55.902Z,102572.38
2023-04-16T23:33:22.612Z,102575.97
2023-04-16T23:35:49.024Z,102582.75
2023-04-16T23:38:15.681Z,102575.03
2023-04-16T23:40:42.142Z,102578.78
2023-04-16T23:43:09.446Z,102570.16
2023-04-16T23:45:35.956Z,102572.38
2023-04-16T23:48:02.647Z,102573.88
2023-04-16T23:50:29.122Z,102575.13
2023-04-16T23:52:55.696Z,102569.97
2023-04-16T23:55:22.250Z,102576.34
2023-04-16T23:57:48.776Z,102572.13
